Umitaka Maru — JPAT — position and weather

sailwx.info

Track history (hours):
 
Tides and Currents Weather Stations Pressure Air Temp Water Temp Dewpoint Dewpoint Depression Visibility Wind Speed Wind Dir Waves Ship Positions

Oceanographic research ship Umitaka Maru (Japan)

Detailed information on ship capabilities available from University of Delaware's Ocean Information Center.

Last reported at 2019-Feb-04 18:04 UTC. Time now 2019-Feb-17 16:06 UTC.
Position S 32°29' E 152°46'.
Warning: this ship's position is 12 days out of date.

Length 93 m; beam 14.9 m; draft 6 m.

Type: Other ship. MMSI: 432187000.

Date/timePositionNaut miles runAvg speedWind from/ knotsBaromVisibWave heightAir tempDewpointWater temp
2019-Feb-04 18:04S 32°29' E 152°46'312.2
2019-Feb-04 17:51S 32°31' E 152°44'412.4
2019-Feb-04 17:30S 32°35' E 152°41'612.3
2019-Feb-04 17:00S 32°40' E 152°38'612.1
2019-Feb-04 16:30S 32°45' E 152°34'612.2
2019-Feb-04 16:00S 32°50' E 152°30'612.2
2019-Feb-04 15:30S 32°55' E 152°26'612.1
2019-Feb-04 15:00S 33°00' E 152°22'611.8
2019-Feb-04 14:30S 33°05' E 152°18'711.2
2019-Feb-04 13:54S 33°11' E 152°14'410.8
2019-Feb-04 13:30S 33°15' E 152°11'510.5
2019-Feb-04 13:00S 33°19' E 152°08'510.4
2019-Feb-04 12:30S 33°24' E 152°05'510.5
2019-Feb-04 12:00S 33°28' E 152°02'510.6
2019-Feb-04 11:29S 33°33' E 151°58'610.2
2019-Feb-04 10:57S 33°38' E 151°55'410.1
2019-Feb-04 10:30S 33°41' E 151°52'510.2
2019-Feb-04 10:00S 33°46' E 151°49'510.3
2019-Feb-04 09:30S 33°50' E 151°45'510.6
2019-Feb-04 09:00S 33°54' E 151°41'510.5
2019-Feb-04 08:30S 33°59' E 151°38'510.5
2019-Feb-04 08:00S 34°03' E 151°35'510.8
2019-Feb-04 07:30S 34°08' E 151°32'510.6
2019-Feb-04 07:00S 34°13' E 151°29'510.5
2019-Feb-04 06:30S 34°17' E 151°26'510.3
2019-Feb-04 06:00S 34°22' E 151°23'510.1
2019-Feb-04 05:30S 34°27' E 151°21'510.0
2019-Feb-04 05:00S 34°31' E 151°18'510.2
2019-Feb-04 04:30S 34°36' E 151°16'26611.0
2019-Feb-03 04:21S 38°51' E 149°42'26110.3
2019-Feb-02 03:08S 43°03' E 148°13'212.7
2019-Feb-02 03:00S 43°04' E 148°13'612.4
2019-Feb-02 02:29S 43°10' E 148°09'612.1
2019-Feb-02 01:59S 43°14' E 148°03'710.4
2019-Feb-02 01:20S 43°16' E 147°54'411.2
2019-Feb-02 01:00S 43°16' E 147°49'611.5
2019-Feb-02 00:30S 43°14' E 147°41'611.9
2019-Feb-02 00:00S 43°11' E 147°34'  
2019-Jan-27 01:23S 42°60' E 147°23'811.2
2019-Jan-27 00:42S 43°07' E 147°27'512.4
2019-Jan-27 00:19S 43°11' E 147°30'712.6
2019-Jan-26 23:44S 43°18' E 147°30'612.5
2019-Jan-26 23:14S 43°24' E 147°30'512.2
2019-Jan-26 22:48S 43°30' E 147°30'312.0
2019-Jan-26 22:30S 43°33' E 147°30'  
Track history (hours):
 
Tides and Currents Weather Stations Pressure Air Temp Water Temp Dewpoint Dewpoint Depression Visibility Wind Speed Wind Dir Waves Ship Positions

Oceanographic research ship Umitaka Maru (Japan)

Detailed information on ship capabilities available from University of Delaware's Ocean Information Center.

Last reported at 2019-Feb-04 18:04 UTC. Time now 2019-Feb-17 16:06 UTC.
Position S 32°29' E 152°46'.
Warning: this ship's position is 12 days out of date.

Length 93 m; beam 14.9 m; draft 6 m.

Type: Other ship. MMSI: 432187000.

Date/timePositionNaut miles runAvg speedWind from/ knotsBaromVisibWave heightAir tempDewpointWater temp
2019-Feb-04 18:04S 32°29' E 152°46'312.2
2019-Feb-04 17:51S 32°31' E 152°44'412.4
2019-Feb-04 17:30S 32°35' E 152°41'612.3
2019-Feb-04 17:00S 32°40' E 152°38'612.1
2019-Feb-04 16:30S 32°45' E 152°34'612.2
2019-Feb-04 16:00S 32°50' E 152°30'612.2
2019-Feb-04 15:30S 32°55' E 152°26'612.1
2019-Feb-04 15:00S 33°00' E 152°22'611.8
2019-Feb-04 14:30S 33°05' E 152°18'711.2
2019-Feb-04 13:54S 33°11' E 152°14'410.8
2019-Feb-04 13:30S 33°15' E 152°11'510.5
2019-Feb-04 13:00S 33°19' E 152°08'510.4
2019-Feb-04 12:30S 33°24' E 152°05'510.5
2019-Feb-04 12:00S 33°28' E 152°02'510.6
2019-Feb-04 11:29S 33°33' E 151°58'610.2
2019-Feb-04 10:57S 33°38' E 151°55'410.1
2019-Feb-04 10:30S 33°41' E 151°52'510.2
2019-Feb-04 10:00S 33°46' E 151°49'510.3
2019-Feb-04 09:30S 33°50' E 151°45'510.6
2019-Feb-04 09:00S 33°54' E 151°41'510.5
2019-Feb-04 08:30S 33°59' E 151°38'510.5
2019-Feb-04 08:00S 34°03' E 151°35'510.8
2019-Feb-04 07:30S 34°08' E 151°32'510.6
2019-Feb-04 07:00S 34°13' E 151°29'510.5
2019-Feb-04 06:30S 34°17' E 151°26'510.3
2019-Feb-04 06:00S 34°22' E 151°23'510.1
2019-Feb-04 05:30S 34°27' E 151°21'510.0
2019-Feb-04 05:00S 34°31' E 151°18'510.2
2019-Feb-04 04:30S 34°36' E 151°16'26611.0
2019-Feb-03 04:21S 38°51' E 149°42'26110.3
2019-Feb-02 03:08S 43°03' E 148°13'212.7
2019-Feb-02 03:00S 43°04' E 148°13'612.4
2019-Feb-02 02:29S 43°10' E 148°09'612.1
2019-Feb-02 01:59S 43°14' E 148°03'710.4
2019-Feb-02 01:20S 43°16' E 147°54'411.2
2019-Feb-02 01:00S 43°16' E 147°49'611.5
2019-Feb-02 00:30S 43°14' E 147°41'611.9
2019-Feb-02 00:00S 43°11' E 147°34'  
2019-Jan-27 01:23S 42°60' E 147°23'811.2
2019-Jan-27 00:42S 43°07' E 147°27'512.4
2019-Jan-27 00:19S 43°11' E 147°30'712.6
2019-Jan-26 23:44S 43°18' E 147°30'612.5
2019-Jan-26 23:14S 43°24' E 147°30'512.2
2019-Jan-26 22:48S 43°30' E 147°30'312.0
2019-Jan-26 22:30S 43°33' E 147°30'  

Dump ship's entire track history